ADDS TAF Board (Experimental) INFO Settings
IDs: Format: Expanded Condensed

KSFO - San Francisco Intl, CA, US

Issued at 0527 UTC 01 Sep 2015
Updated at: 0753 UTC 01 Sep 2015
Time0656Z 01/08Z 01/09Z 01/10Z 01/11Z 01/12Z 01/13Z 01/14Z 01/15Z 01/16Z 01/17Z 01/18Z 01/19Z 01/20Z
Type OBS PRVL PRVL PRVL
  [TEMP]  
PRVL
  [TEMP]  
PRVL
  [TEMP]  
PRVL
  [TEMP]  
PRVL PRVL PRVL PRVL PRVL PRVL PRVL
VIS 10 >6 >6 >6 >6 >6 >6 >6 >6 >6 >6 >6 >6 >6
CIG -- -- -- --
  [12]  
--
  [12]  
--
  [12]  
--
  [12]  
-- -- -- -- -- -- --
Cover FEW FEW FEW SCT
  [BKN]  
SCT
  [BKN]  
SCT
  [BKN]  
SCT
  [BKN]  
SCT SCT SCT SCT SCT FEW FEW
FltCat VFR VFR VFR VFR
  [MVFR]  
VFR
  [MVFR]  
VFR
  [MVFR]  
VFR
  [MVFR]  
VFR VFR VFR VFR VFR VFR VFR
WX -- -- -- --
  [--]  
--
  [--]  
--
  [--]  
--
  [--]  
-- -- -- -- -- -- --
WDir 220 270 270 280
[280]
280
[280]
280
[280]
280
[280]
280 280 280 280 280 260 260
WSpd 4 8 8 8
  [8]  
8
  [8]  
8
  [8]  
8
  [8]  
8 8 8 8 8 14 14
WGst -- -- -- --
  [--]  
--
  [--]  
--
  [--]  
--
  [--]  
-- -- -- -- -- 19 19
R01/19
XWnd 1 7 7 8 8 8 8 8 8 8 8 8 11 11
XGst -- -- -- 0 0 0 0 -- -- -- -- -- 15 15
HWnd -4 -4 -4 -2 -2 -2 -2 -2 -2 -2 -2 -2 -8 -8
HGst -- -- -- 0 0 0 0 -- -- -- -- -- -11 -11
R10/28
XWnd -4 -4 -4 -2 -2 -2 -2 -2 -2 -2 -2 -2 -8 -8
XGst -- -- -- 0 0 0 0 -- -- -- -- -- -11 -11
HWnd -1 -7 -7 -8 -8 -8 -8 -8 -8 -8 -8 -8 -11 -11
HGst -- -- -- 0 0 0 0 -- -- -- -- -- -15 -15

NOTE: TEMPO conditions in [brackets]. Keep in mind TEMPO conditions might be better (lower impact) than prevailing conditions.

Raw TAF
KSFO 010527Z 0106/0212 27008KT P6SM FEW012
  FM011000 28008KT P6SM SCT012
  TEMPO 0110/0114 BKN012
  FM011900 26014G19KT P6SM FEW014
  FM020400 27014KT P6SM FEW012


Raw METAR
KSFO 010656Z 22004KT 10SM FEW012 17/13 A2988 RMK AO2 SLP119 T01670133
KSFO 010556Z 25006KT 10SM FEW012 17/13 A2989 RMK AO2 SLP120 T01720133 10217 20172 50004
KSFO 010456Z 27011KT 10SM FEW012 17/13 A2989 RMK AO2 SLP121 T01720133

METAR Board
Radar Display
Forecast Discussion

TAF Board Legend

Potential Impact
Threat None Slight Moderate High
Visibility (sm) ≥5.1 5.1>X≥3 3>X≥1 <1
Ceiling (100 ft) ≥30.1 30.1>X≥10 10>X≥5 <5
Wind Speed (kt) <10 10≤X<20 20≤X<30 ≥30
Wind Gust (kt) <15 15≤X<25 25≤X<35 ≥35
Weather No Wx Reported VCTS,-TS,-FZRA,SN TS,FZRA +TS,+FZRA,+SN